<?xml version="1.0" encoding="ISO-8859-1" standalone="yes"?>
<gpx
  version="1.1"
  creator="Touratech QV 4.0.133 Power User - http://www.ttqv.com"
  xmlns:xsi="http://www.w3.org/2001/XMLSchema-instance"  xmlns:topografix="http://www.topografix.com/GPX/Private/TopoGrafix/0/1"
  xmlns="http://www.topografix.com/GPX/1/1"
  xsi:schemaLocation="http://www.topografix.com/GPX/1/1 http://www.topografix.com/GPX/1/1/gpx.xsd">
<metadata>
  <time>2012-06-04T18:05:37Z</time>
  <bounds minlat="51.537248716267" minlon="6.97066630593965" maxlat="51.5654333742665" maxlon="7.01469999631234"/>
</metadata>
<trk>
  <name>A3_Linnerott</name>
  <trkseg>
    <trkpt lat="51.5601169052751" lon="7.01240294334727">
    <ele>47</ele>
    <time>2008-06-19T14:31:26Z</time>
    </trkpt>
    <trkpt lat="51.5604841974473" lon="7.01185490321375">
    <ele>45</ele>
    <time>2008-06-19T14:31:32Z</time>
    </trkpt>
    <trkpt lat="51.5611292165548" lon="7.01078074026084">
    <ele>46</ele>
    <time>2008-06-19T14:31:41Z</time>
    </trkpt>
    <trkpt lat="51.5612046747058" lon="7.01092172634827">
    <ele>46</ele>
    <time>2008-06-19T14:31:43Z</time>
    </trkpt>
    <trkpt lat="51.5627174265875" lon="7.00896893244836">
    <ele>45</ele>
    <time>2008-06-19T14:31:45Z</time>
    </trkpt>
    <trkpt lat="51.5627478824075" lon="7.00878929988873">
    <ele>44</ele>
    <time>2008-06-19T14:32:04Z</time>
    </trkpt>
    <trkpt lat="51.5633306779834" lon="7.008024367639">
    <ele>47</ele>
    <time>2008-06-19T14:32:06Z</time>
    </trkpt>
    <trkpt lat="51.5638616960303" lon="7.00718953563053">
    <ele>50</ele>
    <time>2008-06-19T14:32:09Z</time>
    </trkpt>
    <trkpt lat="51.5641854094654" lon="7.00672447603815">
    <ele>51</ele>
    <time>2008-06-19T14:32:13Z</time>
    </trkpt>
    <trkpt lat="51.5646112883074" lon="7.00631806693661">
    <ele>53</ele>
    <time>2008-06-19T14:32:21Z</time>
    </trkpt>
    <trkpt lat="51.564726629275" lon="7.00615971169911">
    <ele>53</ele>
    <time>2008-06-19T14:32:22Z</time>
    </trkpt>
    <trkpt lat="51.5648191980585" lon="7.00598431570937">
    <ele>54</ele>
    <time>2008-06-19T14:32:25Z</time>
    </trkpt>
    <trkpt lat="51.5653560233649" lon="7.00549187322873">
    <ele>55</ele>
    <time>2008-06-19T14:32:26Z</time>
    </trkpt>
    <trkpt lat="51.5654333742665" lon="7.00508266324758">
    <ele>56</ele>
    <time>2008-06-19T14:32:28Z</time>
    </trkpt>
    <trkpt lat="51.5644585787118" lon="7.0026273158905">
    <ele>54</ele>
    <time>2008-06-19T14:32:40Z</time>
    </trkpt>
    <trkpt lat="51.5640427186084" lon="7.00296117489832">
    <ele>53</ele>
    <time>2008-06-19T14:32:43Z</time>
    </trkpt>
    <trkpt lat="51.5638757939617" lon="7.00240035513767">
    <ele>53</ele>
    <time>2008-06-19T14:32:45Z</time>
    </trkpt>
    <trkpt lat="51.5630384489965" lon="6.99910947253545">
    <ele>54</ele>
    <time>2008-06-19T14:32:51Z</time>
    </trkpt>
    <trkpt lat="51.5624654476239" lon="6.99649243232324">
    <ele>53</ele>
    <time>2008-06-19T14:32:56Z</time>
    </trkpt>
    <trkpt lat="51.5623978190339" lon="6.99615273173909">
    <ele>53</ele>
    <time>2008-06-19T14:33:07Z</time>
    </trkpt>
    <trkpt lat="51.5622774868075" lon="6.99568910202228">
    <ele>53</ele>
    <time>2008-06-19T14:33:09Z</time>
    </trkpt>
    <trkpt lat="51.5619241814915" lon="6.9947487707254">
    <ele>53</ele>
    <time>2008-06-19T14:33:12Z</time>
    </trkpt>
    <trkpt lat="51.56160203244" lon="6.99398743380508">
    <ele>52</ele>
    <time>2008-06-19T14:33:16Z</time>
    </trkpt>
    <trkpt lat="51.5612220192933" lon="6.99312946290196">
    <ele>52</ele>
    <time>2008-06-19T14:33:28Z</time>
    </trkpt>
    <trkpt lat="51.5610361291227" lon="6.99277694989061">
    <ele>51</ele>
    <time>2008-06-19T14:33:30Z</time>
    </trkpt>
    <trkpt lat="51.5604702406023" lon="6.99222476177947">
    <ele>50</ele>
    <time>2008-06-19T14:33:37Z</time>
    </trkpt>
    <trkpt lat="51.560351281387" lon="6.99184225713138">
    <ele>50</ele>
    <time>2008-06-19T14:33:38Z</time>
    </trkpt>
    <trkpt lat="51.5602529350195" lon="6.99135063832221">
    <ele>49</ele>
    <time>2008-06-19T14:33:39Z</time>
    </trkpt>
    <trkpt lat="51.5601705097416" lon="6.99080421598067">
    <ele>48</ele>
    <time>2008-06-19T14:33:42Z</time>
    </trkpt>
    <trkpt lat="51.5599513776585" lon="6.99048023779809">
    <ele>47</ele>
    <time>2008-06-19T14:33:45Z</time>
    </trkpt>
    <trkpt lat="51.5599469597668" lon="6.98989431122619">
    <ele>47</ele>
    <time>2008-06-19T14:33:56Z</time>
    </trkpt>
    <trkpt lat="51.55991383942" lon="6.98927358198351">
    <ele>47</ele>
    <time>2008-06-19T14:34:00Z</time>
    </trkpt>
    <trkpt lat="51.5598674198484" lon="6.98886083696115">
    <ele>47</ele>
    <time>2008-06-19T14:34:01Z</time>
    </trkpt>
    <trkpt lat="51.5598476356529" lon="6.98869038251832">
    <ele>47</ele>
    <time>2008-06-19T14:34:08Z</time>
    </trkpt>
    <trkpt lat="51.5601375229486" lon="6.9885513476544">
    <ele>47</ele>
    <time>2008-06-19T14:34:12Z</time>
    </trkpt>
    <trkpt lat="51.5604274100469" lon="6.98841231097494">
    <ele>47</ele>
    <time>2008-06-19T14:34:22Z</time>
    </trkpt>
    <trkpt lat="51.5604940336714" lon="6.9883642836007">
    <ele>47</ele>
    <time>2008-06-19T14:34:34Z</time>
    </trkpt>
    <trkpt lat="51.5605368956689" lon="6.98826739960554">
    <ele>47</ele>
    <time>2008-06-19T14:34:36Z</time>
    </trkpt>
    <trkpt lat="51.5604519378675" lon="6.98820382925112">
    <ele>47</ele>
    <time>2008-06-19T14:35:18Z</time>
    </trkpt>
    <trkpt lat="51.56056153571" lon="6.98771205311374">
    <ele>46</ele>
    <time>2008-06-19T14:35:24Z</time>
    </trkpt>
    <trkpt lat="51.5605061967731" lon="6.98743495812366">
    <ele>46</ele>
    <time>2008-06-19T14:35:26Z</time>
    </trkpt>
    <trkpt lat="51.5602780870063" lon="6.98658838551466">
    <ele>44</ele>
    <time>2008-06-19T14:35:29Z</time>
    </trkpt>
    <trkpt lat="51.5601394762247" lon="6.98604445387984">
    <ele>44</ele>
    <time>2008-06-19T14:35:43Z</time>
    </trkpt>
    <trkpt lat="51.5601573005285" lon="6.98577314729143">
    <ele>43</ele>
    <time>2008-06-19T14:35:45Z</time>
    </trkpt>
    <trkpt lat="51.5602737201827" lon="6.98437031714757">
    <ele>43</ele>
    <time>2008-06-19T14:35:50Z</time>
    </trkpt>
    <trkpt lat="51.5603643651736" lon="6.98310388039196">
    <ele>38</ele>
    <time>2008-06-19T14:36:13Z</time>
    </trkpt>
    <trkpt lat="51.5598662549587" lon="6.98290049199034">
    <ele>38</ele>
    <time>2008-06-19T14:36:15Z</time>
    </trkpt>
    <trkpt lat="51.5595255565906" lon="6.98269915786878">
    <ele>38</ele>
    <time>2008-06-19T14:36:16Z</time>
    </trkpt>
    <trkpt lat="51.5591580159133" lon="6.98257115168953">
    <ele>39</ele>
    <time>2008-06-19T14:36:18Z</time>
    </trkpt>
    <trkpt lat="51.5587730062415" lon="6.98240785264414">
    <ele>39</ele>
    <time>2008-06-19T14:36:19Z</time>
    </trkpt>
    <trkpt lat="51.55855710615" lon="6.98227313785224">
    <ele>38</ele>
    <time>2008-06-19T14:36:21Z</time>
    </trkpt>
    <trkpt lat="51.5582391820474" lon="6.98208883948623">
    <ele>38</ele>
    <time>2008-06-19T14:36:26Z</time>
    </trkpt>
    <trkpt lat="51.5579805571155" lon="6.98175764813718">
    <ele>38</ele>
    <time>2008-06-19T14:36:27Z</time>
    </trkpt>
    <trkpt lat="51.5577370747675" lon="6.98132660480938">
    <ele>38</ele>
    <time>2008-06-19T14:36:29Z</time>
    </trkpt>
    <trkpt lat="51.5576556889021" lon="6.98084330151565">
    <ele>38</ele>
    <time>2008-06-19T14:36:30Z</time>
    </trkpt>
    <trkpt lat="51.5575722844119" lon="6.9802428710331">
    <ele>38</ele>
    <time>2008-06-19T14:36:31Z</time>
    </trkpt>
    <trkpt lat="51.5575435174981" lon="6.97922524857932">
    <ele>38</ele>
    <time>2008-06-19T14:36:33Z</time>
    </trkpt>
    <trkpt lat="51.5575424864198" lon="6.97851296788561">
    <ele>39</ele>
    <time>2008-06-19T14:36:36Z</time>
    </trkpt>
    <trkpt lat="51.5575602934474" lon="6.9782416743273">
    <ele>39</ele>
    <time>2008-06-19T14:36:39Z</time>
    </trkpt>
    <trkpt lat="51.5575646928633" lon="6.97784474019179">
    <ele>39</ele>
    <time>2008-06-19T14:36:40Z</time>
    </trkpt>
    <trkpt lat="51.5575589457127" lon="6.97751137375644">
    <ele>40</ele>
    <time>2008-06-19T14:36:41Z</time>
    </trkpt>
    <trkpt lat="51.5575386790994" lon="6.97731390361669">
    <ele>39</ele>
    <time>2008-06-19T14:36:46Z</time>
    </trkpt>
    <trkpt lat="51.5573421533835" lon="6.97667341839437">
    <ele>39</ele>
    <time>2008-06-19T14:36:48Z</time>
    </trkpt>
    <trkpt lat="51.5571674676401" lon="6.97599590196852">
    <ele>40</ele>
    <time>2008-06-19T14:36:50Z</time>
    </trkpt>
    <trkpt lat="51.5569762401292" lon="6.97533715878698">
    <ele>40</ele>
    <time>2008-06-19T14:36:55Z</time>
    </trkpt>
    <trkpt lat="51.5567385229311" lon="6.97459032034697">
    <ele>42</ele>
    <time>2008-06-19T14:37:00Z</time>
    </trkpt>
    <trkpt lat="51.556392859663" lon="6.97345155879515">
    <ele>43</ele>
    <time>2008-06-19T14:37:02Z</time>
    </trkpt>
    <trkpt lat="51.5561671417735" lon="6.9727492884329">
    <ele>44</ele>
    <time>2008-06-19T14:37:03Z</time>
    </trkpt>
    <trkpt lat="51.5560471855086" lon="6.97231281475227">
    <ele>45</ele>
    <time>2008-06-19T14:37:06Z</time>
    </trkpt>
    <trkpt lat="51.5560114630858" lon="6.97219718936674">
    <ele>45</ele>
    <time>2008-06-19T14:37:08Z</time>
    </trkpt>
    <trkpt lat="51.5559957135722" lon="6.97193641171837">
    <ele>46</ele>
    <time>2008-06-19T14:37:10Z</time>
    </trkpt>
    <trkpt lat="51.5559980586321" lon="6.97174696102739">
    <ele>46</ele>
    <time>2008-06-19T14:37:12Z</time>
    </trkpt>
    <trkpt lat="51.5559394031064" lon="6.97160530723607">
    <ele>46</ele>
    <time>2008-06-19T14:37:13Z</time>
    </trkpt>
    <trkpt lat="51.5558754427209" lon="6.97148192281881">
    <ele>46</ele>
    <time>2008-06-19T14:37:15Z</time>
    </trkpt>
    <trkpt lat="51.5558431543858" lon="6.97123991518926">
    <ele>46</ele>
    <time>2008-06-19T14:37:17Z</time>
    </trkpt>
    <trkpt lat="51.5557977628695" lon="6.97089029368554">
    <ele>47</ele>
    <time>2008-06-19T14:37:18Z</time>
    </trkpt>
    <trkpt lat="51.5557657850496" lon="6.97066630593965">
    <ele>47</ele>
    <time>2008-06-19T14:37:40Z</time>
    </trkpt>
    <trkpt lat="51.5555748311186" lon="6.97067480698778">
    <ele>47</ele>
    <time>2008-06-19T14:38:40Z</time>
    </trkpt>
    <trkpt lat="51.5554321467693" lon="6.97069049153538">
    </trkpt>
    <trkpt lat="51.5550230434517" lon="6.97073555840159">
    </trkpt>
    <trkpt lat="51.5547092082757" lon="6.97077161189456">
    </trkpt>
    <trkpt lat="51.5539974669064" lon="6.97099694622563">
    </trkpt>
    <trkpt lat="51.5534874721471" lon="6.97117721369049">
    </trkpt>
    <trkpt lat="51.5529718672373" lon="6.97135748115535">
    </trkpt>
    <trkpt lat="51.55268043579" lon="6.97146564163426">
    </trkpt>
    <trkpt lat="51.5521928443858" lon="6.97164590909911">
    </trkpt>
    <trkpt lat="51.551520295942" lon="6.97188025680343">
    </trkpt>
    <trkpt lat="51.5514474359303" lon="6.97233092546557">
    </trkpt>
    <trkpt lat="51.551363366541" lon="6.97272751388825">
    </trkpt>
    <trkpt lat="51.5512961109177" lon="6.97294383484608">
    </trkpt>
    <trkpt lat="51.5511896226442" lon="6.97308804881796">
    </trkpt>
    <trkpt lat="51.5508309234678" lon="6.9734125302547">
    </trkpt>
    <trkpt lat="51.5505843161434" lon="6.9736018110928">
    </trkpt>
    <trkpt lat="51.550365731261" lon="6.97370997157172">
    </trkpt>
    <trkpt lat="51.5501807740017" lon="6.97373701169145">
    </trkpt>
    <trkpt lat="51.550141540547" lon="6.97388122566333">
    </trkpt>
    <trkpt lat="51.5500014207897" lon="6.97434090769871">
    </trkpt>
    <trkpt lat="51.5499117439185" lon="6.97463834901573">
    </trkpt>
    <trkpt lat="51.5498276716913" lon="6.97495381707922">
    </trkpt>
    <trkpt lat="51.5497772282804" lon="6.97514309791732">
    </trkpt>
    <trkpt lat="51.5497323896459" lon="6.97535040550191">
    </trkpt>
    <trkpt lat="51.5497211799804" lon="6.97557573983298">
    </trkpt>
    <trkpt lat="51.5497211799804" lon="6.97590022126972">
    </trkpt>
    <trkpt lat="51.5497099703121" lon="6.976170622467">
    </trkpt>
    <trkpt lat="51.5496931558046" lon="6.97653115739672">
    </trkpt>
    <trkpt lat="51.5496987606411" lon="6.97703590629831">
    </trkpt>
    <trkpt lat="51.5496763412907" lon="6.97760374881261">
    </trkpt>
    <trkpt lat="51.549637107401" lon="6.97804540410151">
    </trkpt>
    <trkpt lat="51.5498613006008" lon="6.97836988553825">
    </trkpt>
    <trkpt lat="51.5498893246731" lon="6.978991808292">
    </trkpt>
    <trkpt lat="51.5498893246731" lon="6.97928023623577">
    </trkpt>
    <trkpt lat="51.5498781150463" lon="6.97992018573601">
    </trkpt>
    <trkpt lat="51.5498164620493" lon="6.98087560329975">
    </trkpt>
    <trkpt lat="51.5497211799804" lon="6.98170483363809">
    </trkpt>
    <trkpt lat="51.5496090831733" lon="6.98268729132155">
    </trkpt>
    <trkpt lat="51.5495474298117" lon="6.98337230768801">
    </trkpt>
    <trkpt lat="51.5494353325765" lon="6.98448996597011">
    </trkpt>
    <trkpt lat="51.5493736789794" lon="6.9849496480055">
    </trkpt>
    <trkpt lat="51.5491102490326" lon="6.98530116956197">
    </trkpt>
    <trkpt lat="51.5488860521316" lon="6.98562565099871">
    </trkpt>
    <trkpt lat="51.5478547321569" lon="6.98671626916109">
    </trkpt>
    <trkpt lat="51.5476977901112" lon="6.98684245638649">
    </trkpt>
    <trkpt lat="51.5476081086992" lon="6.98691456337243">
    </trkpt>
    <trkpt lat="51.5475072168994" lon="6.98697765698513">
    </trkpt>
    <trkpt lat="51.5473054326287" lon="6.98723904480917">
    </trkpt>
    <trkpt lat="51.5471428835375" lon="6.98749141925997">
    </trkpt>
    <trkpt lat="51.547070016515" lon="6.98746437914024">
    </trkpt>
    <trkpt lat="51.546969123522" lon="6.98733819191484">
    </trkpt>
    <trkpt lat="51.5464422342569" lon="6.98637376097786">
    </trkpt>
    <trkpt lat="51.5460498659468" lon="6.98564367774519">
    </trkpt>
    <trkpt lat="51.5459153388902" lon="6.98543637016061">
    </trkpt>
    <trkpt lat="51.5458088380216" lon="6.98533722305494">
    </trkpt>
    <trkpt lat="51.545685520915" lon="6.98522906257602">
    </trkpt>
    <trkpt lat="51.5455902301945" lon="6.98515695559008">
    </trkpt>
    <trkpt lat="51.545483728565" lon="6.98511188872387">
    </trkpt>
    <trkpt lat="51.5453772266861" lon="6.98512991547035">
    </trkpt>
    <trkpt lat="51.5452595137932" lon="6.9852020224563">
    </trkpt>
    <trkpt lat="51.5450240870937" lon="6.98549946377331">
    </trkpt>
    <trkpt lat="51.5447830537346" lon="6.98584197195653">
    </trkpt>
    <trkpt lat="51.5446709447605" lon="6.98601322604815">
    </trkpt>
    <trkpt lat="51.5445980737792" lon="6.98613941327355">
    </trkpt>
    <trkpt lat="51.5445308081544" lon="6.98631066736516">
    </trkpt>
    <trkpt lat="51.5443626436573" lon="6.98640080109759">
    </trkpt>
    <trkpt lat="51.5442169005905" lon="6.98648192145677">
    </trkpt>
    <trkpt lat="51.5441272123174" lon="6.98656304181596">
    </trkpt>
    <trkpt lat="51.5439085964111" lon="6.98709483083728">
    </trkpt>
    <trkpt lat="51.5435218118499" lon="6.98808630189399">
    </trkpt>
    <trkpt lat="51.5431742634979" lon="6.9889515857253">
    </trkpt>
    <trkpt lat="51.5427930783821" lon="6.98997911027498">
    </trkpt>
    <trkpt lat="51.5424847645557" lon="6.99084439410629">
    </trkpt>
    <trkpt lat="51.54236704418" lon="6.99116887554303">
    </trkpt>
    <trkpt lat="51.542333409731" lon="6.99132210288816">
    </trkpt>
    <trkpt lat="51.5423278039871" lon="6.99138519650086">
    </trkpt>
    <trkpt lat="51.5423165924972" lon="6.99149335697977">
    </trkpt>
    <trkpt lat="51.5423390154742" lon="6.99168263781787">
    </trkpt>
    <trkpt lat="51.5423446212168" lon="6.99179079829679">
    </trkpt>
    <trkpt lat="51.5423390154742" lon="6.99188994540246">
    </trkpt>
    <trkpt lat="51.5422549292533" lon="6.99198909250813">
    </trkpt>
    <trkpt lat="51.5420811505711" lon="6.99212429310677">
    </trkpt>
    <trkpt lat="51.5417335912159" lon="6.99243976117027">
    </trkpt>
    <trkpt lat="51.541599051398" lon="6.99256594839567">
    </trkpt>
    <trkpt lat="51.5414589053313" lon="6.99270114899431">
    </trkpt>
    <trkpt lat="51.5413131529642" lon="6.99289944320565">
    </trkpt>
    <trkpt lat="51.5411617942427" lon="6.99316083102969">
    </trkpt>
    <trkpt lat="51.5409655877433" lon="6.99350333921292">
    </trkpt>
    <trkpt lat="51.5408422575107" lon="6.99372867354399">
    </trkpt>
    <trkpt lat="51.5407189269439" lon="6.99413427533992">
    </trkpt>
    <trkpt lat="51.5406965031686" lon="6.99447678352314">
    </trkpt>
    <trkpt lat="51.5406404436819" lon="6.99472915797394">
    </trkpt>
    <trkpt lat="51.5406012020002" lon="6.99487337194583">
    </trkpt>
    <trkpt lat="51.5405171125682" lon="6.99501758591771">
    </trkpt>
    <trkpt lat="51.5404330229808" lon="6.99513475976987">
    </trkpt>
    <trkpt lat="51.5403881751374" lon="6.99524292024878">
    </trkpt>
    <trkpt lat="51.5403265092805" lon="6.99549529469958">
    </trkpt>
    <trkpt lat="51.5402536313418" lon="6.99569358891092">
    </trkpt>
    <trkpt lat="51.5401302991798" lon="6.99597300348145">
    </trkpt>
    <trkpt lat="51.5400013606531" lon="6.99630649829143">
    </trkpt>
    <trkpt lat="51.539872421761" lon="6.99658591286196">
    </trkpt>
    <trkpt lat="51.5397098461155" lon="6.9969103942987">
    </trkpt>
    <trkpt lat="51.5395696942309" lon="6.9971627687495">
    </trkpt>
    <trkpt lat="51.5394295419147" lon="6.99736106296084">
    </trkpt>
    <trkpt lat="51.539317419751" lon="6.99750527693273">
    </trkpt>
    <trkpt lat="51.5392221156946" lon="6.99759541066515">
    </trkpt>
    <trkpt lat="51.5389193838388" lon="6.99774863801028">
    </trkpt>
    <trkpt lat="51.5385661941285" lon="6.99788383860892">
    </trkpt>
    <trkpt lat="51.5381176953083" lon="6.99805509270054">
    </trkpt>
    <trkpt lat="51.5378485938948" lon="6.99813621305972">
    </trkpt>
    <trkpt lat="51.5376467667904" lon="6.99822634679215">
    </trkpt>
    <trkpt lat="51.5375178212274" lon="6.99828944040485">
    </trkpt>
    <trkpt lat="51.537400088003" lon="6.99837056076403">
    </trkpt>
    <trkpt lat="51.5373159926563" lon="6.99846970786971">
    </trkpt>
    <trkpt lat="51.537276748108" lon="6.99859589509511">
    </trkpt>
    <trkpt lat="51.5372543226366" lon="6.9987220823205">
    </trkpt>
    <trkpt lat="51.537248716267" lon="6.99894741665157">
    </trkpt>
    <trkpt lat="51.5372879608395" lon="6.99909163062346">
    </trkpt>
    <trkpt lat="51.5373832689461" lon="6.99942512543344">
    </trkpt>
    <trkpt lat="51.537501002214" lon="6.99977664698991">
    </trkpt>
    <trkpt lat="51.5375682782304" lon="7.00002000806747">
    </trkpt>
    <trkpt lat="51.5375963098745" lon="7.00013718191962">
    </trkpt>
    <trkpt lat="51.5376075225273" lon="7.00033547613097">
    </trkpt>
    <trkpt lat="51.5376187351774" lon="7.00051574359582">
    </trkpt>
    <trkpt lat="51.5377028299648" lon="7.00075009130014">
    </trkpt>
    <trkpt lat="51.5378093498057" lon="7.00104753261715">
    </trkpt>
    <trkpt lat="51.5378542001904" lon="7.00128188032146">
    </trkpt>
    <trkpt lat="51.5379102631093" lon="7.00148918790605">
    </trkpt>
    <trkpt lat="51.5379326882574" lon="7.00166044199766">
    </trkpt>
    <trkpt lat="51.5379607196771" lon="7.00182268271603">
    </trkpt>
    <trkpt lat="51.5379999636357" lon="7.00193985656819">
    </trkpt>
    <trkpt lat="51.5380728451832" lon="7.00205703042034">
    </trkpt>
    <trkpt lat="51.5381569391316" lon="7.00221927113871">
    </trkpt>
    <trkpt lat="51.5382017891738" lon="7.0023634851106">
    </trkpt>
    <trkpt lat="51.5382522454185" lon="7.00262487293464">
    </trkpt>
    <trkpt lat="51.5382858828838" lon="7.00285922063895">
    </trkpt>
    <trkpt lat="51.5383195203244" lon="7.00297639449111">
    </trkpt>
    <trkpt lat="51.5383811889008" lon="7.00309356834327">
    </trkpt>
    <trkpt lat="51.538426038722" lon="7.00315666195597">
    </trkpt>
    <trkpt lat="51.5384316449466" lon="7.00339100966028">
    </trkpt>
    <trkpt lat="51.5385108700908" lon="7.00343930959974">
    <ele>35</ele>
    <time>2008-06-20T06:25:21Z</time>
    </trkpt>
    <trkpt lat="51.5386138053626" lon="7.00354296004273">
    <ele>35</ele>
    <time>2008-06-20T06:25:24Z</time>
    </trkpt>
    <trkpt lat="51.5390908512962" lon="7.0041620100451">
    <ele>34</ele>
    <time>2008-06-20T06:25:33Z</time>
    </trkpt>
    <trkpt lat="51.5398212978431" lon="7.00513953114331">
    <ele>33</ele>
    <time>2008-06-20T06:25:46Z</time>
    </trkpt>
    <trkpt lat="51.5399296433623" lon="7.00490044730757">
    <ele>34</ele>
    <time>2008-06-20T06:25:50Z</time>
    </trkpt>
    <trkpt lat="51.5400744447769" lon="7.00482200688396">
    <ele>34</ele>
    <time>2008-06-20T06:25:52Z</time>
    </trkpt>
    <trkpt lat="51.5406854093362" lon="7.00472317269485">
    <ele>35</ele>
    <time>2008-06-20T06:25:58Z</time>
    </trkpt>
    <trkpt lat="51.5415597326838" lon="7.00457675901002">
    <ele>35</ele>
    <time>2008-06-20T06:26:02Z</time>
    </trkpt>
    <trkpt lat="51.5419123942957" lon="7.00482272542756">
    <ele>34</ele>
    <time>2008-06-20T06:26:11Z</time>
    </trkpt>
    <trkpt lat="51.5428179669055" lon="7.00552224318132">
    <ele>34</ele>
    <time>2008-06-20T06:26:13Z</time>
    </trkpt>
    <trkpt lat="51.5430029499559" lon="7.00566283666214">
    <ele>34</ele>
    <time>2008-06-20T06:27:05Z</time>
    </trkpt>
    <trkpt lat="51.5433019483141" lon="7.00588867609226">
    <ele>33</ele>
    <time>2008-06-20T06:27:10Z</time>
    </trkpt>
    <trkpt lat="51.5437897102994" lon="7.00515523900939">
    <ele>33</ele>
    <time>2008-06-20T06:27:14Z</time>
    </trkpt>
    <trkpt lat="51.5441431869302" lon="7.00577977822068">
    <ele>32</ele>
    <time>2008-06-20T06:27:16Z</time>
    </trkpt>
    <trkpt lat="51.5443741222144" lon="7.00613925956446">
    <ele>33</ele>
    <time>2008-06-20T06:27:17Z</time>
    </trkpt>
    <trkpt lat="51.5448650959734" lon="7.00658653359892">
    <ele>33</ele>
    <time>2008-06-20T06:27:18Z</time>
    </trkpt>
    <trkpt lat="51.5456915694117" lon="7.00726254325476">
    <ele>33</ele>
    <time>2008-06-20T06:27:26Z</time>
    </trkpt>
    <trkpt lat="51.5465028725778" lon="7.00803839994117">
    <ele>33</ele>
    <time>2008-06-20T06:27:28Z</time>
    </trkpt>
    <trkpt lat="51.5468975953355" lon="7.00844484508322">
    <ele>33</ele>
    <time>2008-06-20T06:27:30Z</time>
    </trkpt>
    <trkpt lat="51.5472038300175" lon="7.00893629354412">
    <ele>33</ele>
    <time>2008-06-20T06:27:32Z</time>
    </trkpt>
    <trkpt lat="51.5476555178799" lon="7.00971888696548">
    <ele>33</ele>
    <time>2008-06-20T06:27:34Z</time>
    </trkpt>
    <trkpt lat="51.5480680383862" lon="7.01051221953339">
    <ele>34</ele>
    <time>2008-06-20T06:27:36Z</time>
    </trkpt>
    <trkpt lat="51.5486405629394" lon="7.01146085738316">
    <ele>35</ele>
    <time>2008-06-20T06:27:43Z</time>
    </trkpt>
    <trkpt lat="51.5488775558352" lon="7.01184718303764">
    <ele>35</ele>
    <time>2008-06-20T06:27:44Z</time>
    </trkpt>
    <trkpt lat="51.549026331548" lon="7.01200296691765">
    <ele>35</ele>
    <time>2008-06-20T06:27:45Z</time>
    </trkpt>
    <trkpt lat="51.5492239868877" lon="7.01219151431716">
    <ele>36</ele>
    <time>2008-06-20T06:27:47Z</time>
    </trkpt>
    <trkpt lat="51.5494914596872" lon="7.01225314127596">
    <ele>36</ele>
    <time>2008-06-20T06:27:48Z</time>
    </trkpt>
    <trkpt lat="51.5497971899489" lon="7.01238405593331">
    <ele>37</ele>
    <time>2008-06-20T06:27:49Z</time>
    </trkpt>
    <trkpt lat="51.550029906329" lon="7.01251815505848">
    <ele>37</ele>
    <time>2008-06-20T06:27:51Z</time>
    </trkpt>
    <trkpt lat="51.5502173857707" lon="7.01263619673503">
    <ele>37</ele>
    <time>2008-06-20T06:27:53Z</time>
    </trkpt>
    <trkpt lat="51.5503713190665" lon="7.0127647168499">
    <ele>37</ele>
    <time>2008-06-20T06:27:57Z</time>
    </trkpt>
    <trkpt lat="51.5505311738879" lon="7.01291101045411">
    <ele>37</ele>
    <time>2008-06-20T06:27:58Z</time>
    </trkpt>
    <trkpt lat="51.5506886164911" lon="7.01324673340112">
    <ele>37</ele>
    <time>2008-06-20T06:28:04Z</time>
    </trkpt>
    <trkpt lat="51.550858996577" lon="7.01401463530657">
    <ele>37</ele>
    <time>2008-06-20T06:28:05Z</time>
    </trkpt>
    <trkpt lat="51.5510616981577" lon="7.01469999631234">
    <ele>37</ele>
    <time>2008-06-20T06:28:10Z</time>
    </trkpt>
    <trkpt lat="51.5515381555911" lon="7.01429157974976">
    <ele>38</ele>
    <time>2008-06-20T06:28:11Z</time>
    </trkpt>
    <trkpt lat="51.5516720883227" lon="7.0142831241729">
    <ele>38</ele>
    <time>2008-06-20T06:28:12Z</time>
    </trkpt>
    <trkpt lat="51.5517424562735" lon="7.01407532269465">
    <ele>38</ele>
    <time>2008-06-20T06:28:13Z</time>
    </trkpt>
    <trkpt lat="51.5518915073059" lon="7.01391556437177">
    <ele>38</ele>
    <time>2008-06-20T06:28:32Z</time>
    </trkpt>
    <trkpt lat="51.5521612213379" lon="7.0135792500681">
    <ele>39</ele>
    <time>2008-06-20T06:28:33Z</time>
    </trkpt>
    <trkpt lat="51.5524159160214" lon="7.013351775042">
    <ele>39</ele>
    <time>2008-06-20T06:28:35Z</time>
    </trkpt>
    <trkpt lat="51.5526660619451" lon="7.01318760614563">
    <ele>38</ele>
    <time>2008-06-20T06:28:36Z</time>
    </trkpt>
    <trkpt lat="51.5529174284278" lon="7.01309550886339">
    <ele>38</ele>
    <time>2008-06-20T06:28:38Z</time>
    </trkpt>
    <trkpt lat="51.5532701959526" lon="7.01301702270266">
    <ele>38</ele>
    <time>2008-06-20T06:28:39Z</time>
    </trkpt>
    <trkpt lat="51.5537920670237" lon="7.01296722841365">
    <ele>38</ele>
    <time>2008-06-20T06:28:40Z</time>
    </trkpt>
    <trkpt lat="51.5540387325114" lon="7.01292942870341">
    <ele>38</ele>
    <time>2008-06-20T06:28:46Z</time>
    </trkpt>
    <trkpt lat="51.554325170895" lon="7.0129169431888">
    <ele>38</ele>
    <time>2008-06-20T06:28:48Z</time>
    </trkpt>
    <trkpt lat="51.5544327989177" lon="7.01296634854765">
    <ele>38</ele>
    <time>2008-06-20T06:28:50Z</time>
    </trkpt>
    <trkpt lat="51.5545958282534" lon="7.01296825851042">
    <ele>38</ele>
    <time>2008-06-20T06:28:51Z</time>
    </trkpt>
    <trkpt lat="51.5548402346522" lon="7.01312891316692">
    <ele>38</ele>
    <time>2008-06-20T06:28:54Z</time>
    </trkpt>
    <trkpt lat="51.555381425653" lon="7.01355614076325">
    <ele>38</ele>
    <time>2008-06-20T06:28:56Z</time>
    </trkpt>
    <trkpt lat="51.5555801081838" lon="7.01334010651704">
    <ele>38</ele>
    <time>2008-06-20T06:28:59Z</time>
    </trkpt>
    <trkpt lat="51.5557177724775" lon="7.01317181187902">
    <ele>38</ele>
    <time>2008-06-20T06:29:02Z</time>
    </trkpt>
    <trkpt lat="51.5558231113748" lon="7.01308607292455">
    <ele>38</ele>
    <time>2008-06-20T06:29:04Z</time>
    </trkpt>
    <trkpt lat="51.555911600891" lon="7.01300106802789">
    <ele>38</ele>
    <time>2008-06-20T06:29:06Z</time>
    </trkpt>
    <trkpt lat="51.5561374792774" lon="7.01306335371652">
    <ele>39</ele>
    <time>2008-06-20T06:29:12Z</time>
    </trkpt>
    <trkpt lat="51.556736636698" lon="7.01326265139119">
    <ele>41</ele>
    <time>2008-06-20T06:29:14Z</time>
    </trkpt>
    <trkpt lat="51.5576069085662" lon="7.01354030589064">
    <ele>45</ele>
    <time>2008-06-20T06:29:16Z</time>
    </trkpt>
    <trkpt lat="51.5582060651702" lon="7.01373961575161">
    <ele>49</ele>
    <time>2008-06-20T06:29:18Z</time>
    </trkpt>
    <trkpt lat="51.558460177899" lon="7.01380969449815">
    <ele>43</ele>
    <time>2008-06-20T06:29:20Z</time>
    </trkpt>
    <trkpt lat="51.5586573634417" lon="7.01383716974571">
    <ele>49</ele>
    <time>2008-06-20T06:29:22Z</time>
    </trkpt>
    <trkpt lat="51.5588718559426" lon="7.01389094207606">
    <ele>49</ele>
    <time>2008-06-20T06:29:24Z</time>
    </trkpt>
    <trkpt lat="51.5590408067222" lon="7.01391063114955">
    <ele>49</ele>
    <time>2008-06-20T06:29:25Z</time>
    </trkpt>
    <trkpt lat="51.5591968465455" lon="7.01383169513005">
    <ele>48</ele>
    <time>2008-06-20T06:29:27Z</time>
    </trkpt>
    <trkpt lat="51.5593721480861" lon="7.01356255986965">
    <ele>48</ele>
    <time>2008-06-20T06:29:31Z</time>
    </trkpt>
    <trkpt lat="51.5597661544759" lon="7.01293221899066">
    <ele>48</ele>
    <time>2008-06-20T06:29:38Z</time>
    </trkpt>
    <trkpt lat="51.5600844280045" lon="7.01247649767504">
    <ele>47</ele>
    <time>2008-06-20T06:29:43Z</time>
    </trkpt>
  </trkseg>
</trk>
<extensions>
</extensions>
</gpx>
